createdAt,value
2019-03-19T00:01:27.663Z,52.6
2019-03-19T00:11:28.036Z,47.3
2019-03-19T00:21:27.138Z,43.5
2019-03-19T00:31:27.647Z,46.0
2019-03-19T00:41:27.188Z,43.9
2019-03-19T00:51:28.607Z,44.5
2019-03-19T01:01:27.855Z,46.0
2019-03-19T01:11:26.721Z,52.4
2019-03-19T01:21:26.598Z,43.1
2019-03-19T01:31:27.496Z,40.1
2019-03-19T01:41:27.347Z,48.2
2019-03-19T01:51:27.436Z,43.6
2019-03-19T02:01:27.666Z,38.2
2019-03-19T02:11:28.004Z,37.9
2019-03-19T02:21:27.055Z,35.5
2019-03-19T02:31:27.891Z,39.8
2019-03-19T02:41:26.478Z,38.1
2019-03-19T02:51:28.010Z,35.3
2019-03-19T03:01:26.484Z,32.7
2019-03-19T03:11:26.655Z,36.4
2019-03-19T03:21:30.438Z,29.4
2019-03-19T03:31:28.090Z,27.2
2019-03-19T03:41:26.737Z,29.0
2019-03-19T03:51:26.791Z,29.5
2019-03-19T04:01:26.358Z,25.2
2019-03-19T04:11:28.129Z,25.7
2019-03-19T04:21:28.698Z,26.0
2019-03-19T04:31:27.986Z,19.4
2019-03-19T04:41:26.450Z,21.0
2019-03-19T04:51:27.070Z,21.1
2019-03-19T05:01:26.810Z,20.0
2019-03-19T05:11:27.257Z,19.9
2019-03-19T05:21:27.167Z,24.7
2019-03-19T05:31:27.101Z,22.2
2019-03-19T05:41:26.672Z,27.0
2019-03-19T05:51:26.283Z,25.7
2019-03-19T06:01:26.963Z,32.6
2019-03-19T06:11:27.478Z,25.6
2019-03-19T06:21:27.934Z,24.2
2019-03-19T06:31:27.403Z,30.7
2019-03-19T06:41:27.747Z,26.0
2019-03-19T06:51:37.660Z,28.7
2019-03-19T07:01:27.828Z,21.8
2019-03-19T07:11:26.420Z,30.1
2019-03-19T07:21:28.061Z,22.7
2019-03-19T07:31:31.922Z,23.6
2019-03-19T07:41:26.779Z,19.6
2019-03-19T07:51:26.903Z,29.3
2019-03-19T08:01:26.913Z,25.8
2019-03-19T08:11:26.660Z,25.8
2019-03-19T08:21:30.411Z,21.8
2019-03-19T08:31:27.077Z,12.2
2019-03-19T08:41:26.896Z,14.7
2019-03-19T08:51:26.873Z,14.0
2019-03-19T09:01:26.555Z,15.1
2019-03-19T09:11:27.401Z,13.7
2019-03-19T09:21:29.777Z,15.2
2019-03-19T09:31:26.265Z,21.7
2019-03-19T09:41:26.837Z,11.9
2019-03-19T09:51:26.501Z,15.0
2019-03-19T10:01:27.067Z,9.4
2019-03-19T10:11:26.705Z,11.9
2019-03-19T10:21:26.957Z,16.2
2019-03-19T10:31:26.648Z,16.1
2019-03-19T10:41:27.840Z,12.1
2019-03-19T10:51:27.213Z,8.9
2019-03-19T11:01:27.433Z,9.1
2019-03-19T11:11:27.452Z,15.2
2019-03-19T11:21:27.198Z,7.2
2019-03-19T11:31:26.695Z,12.4
2019-03-19T11:41:26.379Z,13.8
2019-03-19T11:51:27.268Z,7.9
2019-03-19T12:01:27.153Z,8.2
2019-03-19T12:11:26.932Z,8.6
2019-03-19T12:21:26.890Z,9.7
2019-03-19T12:31:26.446Z,14.0
2019-03-19T12:41:26.962Z,13.6
2019-03-19T12:51:28.564Z,23.9
2019-03-19T13:01:29.328Z,16.1
2019-03-19T13:11:27.224Z,11.7
2019-03-19T13:21:27.077Z,12.9
2019-03-19T13:31:27.116Z,9.4
2019-03-19T13:41:27.236Z,6.1
2019-03-19T13:51:26.811Z,10.7
2019-03-19T14:01:27.525Z,8.0
2019-03-19T14:11:27.612Z,11.8
2019-03-19T14:21:27.005Z,8.0
2019-03-19T14:31:26.678Z,9.0
2019-03-19T14:41:29.039Z,15.1
2019-03-19T14:51:28.928Z,12.1
2019-03-19T15:01:29.580Z,9.7
2019-03-19T15:11:27.780Z,9.5
2019-03-19T15:21:27.061Z,9.6
2019-03-19T15:31:30.801Z,11.2
2019-03-19T15:41:26.777Z,15.1
2019-03-19T15:51:26.656Z,7.4
2019-03-19T16:01:39.866Z,6.4
2019-03-19T16:11:26.869Z,11.8
2019-03-19T16:21:26.991Z,6.6
2019-03-19T16:31:27.200Z,10.8
2019-03-19T16:41:27.678Z,7.5
2019-03-19T16:51:28.717Z,11.8
2019-03-19T17:01:26.460Z,7.0
2019-03-19T17:11:27.000Z,11.4
2019-03-19T17:21:26.888Z,12.5
2019-03-19T17:31:27.299Z,20.1
2019-03-19T17:41:26.904Z,18.0
2019-03-19T17:51:28.389Z,16.4
2019-03-19T18:01:27.963Z,21.2
2019-03-19T18:11:27.691Z,18.1
2019-03-19T18:21:26.879Z,17.2
2019-03-19T18:31:26.895Z,27.3
2019-03-19T18:41:26.531Z,25.1
2019-03-19T18:51:27.871Z,24.8
2019-03-19T19:01:26.370Z,26.4
2019-03-19T19:11:27.044Z,33.2
2019-03-19T19:21:27.070Z,32.7
2019-03-19T19:31:26.594Z,38.3
2019-03-19T19:41:30.077Z,41.0
2019-03-19T19:51:26.920Z,57.9
2019-03-19T20:01:26.550Z,45.5
2019-03-19T20:11:27.062Z,42.5
2019-03-19T20:21:26.861Z,48.9
2019-03-19T20:31:27.012Z,45.8
2019-03-19T20:41:26.870Z,39.3
2019-03-19T20:51:26.909Z,56.8
2019-03-19T21:01:26.840Z,47.0
2019-03-19T21:11:26.633Z,47.1
2019-03-19T21:21:28.669Z,73.8
2019-03-19T21:31:27.293Z,64.4
2019-03-19T21:41:27.412Z,69.9
2019-03-19T21:51:27.026Z,77.1
2019-03-19T22:01:27.259Z,91.4
2019-03-19T22:11:27.365Z,90.2
2019-03-19T22:21:28.070Z,94.5
2019-03-19T22:31:27.324Z,97.6
2019-03-19T22:41:29.243Z,106.1
2019-03-19T22:51:28.528Z,96.6
2019-03-19T23:01:28.310Z,86.7
2019-03-19T23:11:28.323Z,85.9
2019-03-19T23:21:27.215Z,94.7
2019-03-19T23:31:27.487Z,99.5
2019-03-19T23:41:28.040Z,84.6
2019-03-19T23:51:26.568Z,96.5
